createdAt,value
2023-01-25T00:01:07.269Z,102196.06
2023-01-25T00:04:08.976Z,102191.13
2023-01-25T00:07:10.859Z,102186.91
2023-01-25T00:10:14.262Z,102186.63
2023-01-25T00:13:16.049Z,102186.84
2023-01-25T00:16:17.864Z,102187.59
2023-01-25T00:19:20.205Z,102175.81
2023-01-25T00:22:21.865Z,102183.59
2023-01-25T00:25:25.130Z,102180.31
2023-01-25T00:28:26.984Z,102161.50
2023-01-25T00:31:40.773Z,102160.56
2023-01-25T00:34:47.169Z,102173.50
2023-01-25T00:37:52.933Z,102175.34
2023-01-25T00:40:57.829Z,102178.88
2023-01-25T00:44:00.220Z,102172.97
2023-01-25T00:47:01.961Z,102171.50
2023-01-25T00:50:04.526Z,102165.69
2023-01-25T00:53:06.180Z,102176.22
2023-01-25T00:56:09.440Z,102161.81
2023-01-25T00:59:11.649Z,102163.94
2023-01-25T01:02:13.860Z,102154.53
2023-01-25T01:05:15.785Z,102154.25
2023-01-25T01:08:17.769Z,102157.81
2023-01-25T01:11:21.894Z,102159.94
2023-01-25T01:14:24.179Z,102149.78
2023-01-25T01:17:27.030Z,102155.91
2023-01-25T01:20:28.836Z,102154.28
2023-01-25T01:23:31.312Z,102154.69
2023-01-25T01:26:34.371Z,102155.44
2023-01-25T01:29:36.637Z,102147.69
2023-01-25T01:32:38.475Z,102153.78
2023-01-25T01:35:40.231Z,102153.56
2023-01-25T01:38:42.636Z,102150.06
2023-01-25T01:41:45.762Z,102139.88
2023-01-25T01:44:49.947Z,102140.59
2023-01-25T01:47:52.648Z,102145.56
2023-01-25T01:51:19.880Z,102143.16
2023-01-25T01:54:27.640Z,102136.56
2023-01-25T01:57:36.533Z,102138.00
2023-01-25T02:00:40.953Z,102142.94
2023-01-25T02:03:43.533Z,102142.03
2023-01-25T02:06:50.634Z,102141.47
2023-01-25T02:09:52.765Z,102138.88
2023-01-25T02:12:57.483Z,102131.88
2023-01-25T02:15:59.334Z,102147.41
2023-01-25T02:19:03.593Z,102132.31
2023-01-25T02:22:13.277Z,102142.22
2023-01-25T02:25:17.573Z,102142.88
2023-01-25T02:28:23.018Z,102125.94
2023-01-25T02:31:25.010Z,102132.25
2023-01-25T02:34:27.348Z,102126.38
2023-01-25T02:37:29.564Z,102130.44
2023-01-25T02:40:40.702Z,102125.19
2023-01-25T02:43:42.813Z,102126.13
2023-01-25T02:46:45.152Z,102127.94
2023-01-25T02:49:47.159Z,102125.66
2023-01-25T02:52:48.866Z,102128.69
2023-01-25T02:55:51.951Z,102130.38
2023-01-25T02:58:53.923Z,102128.94
2023-01-25T03:01:55.683Z,102127.56
2023-01-25T03:04:57.480Z,102126.16
2023-01-25T03:07:59.097Z,102126.34
2023-01-25T03:11:06.177Z,102121.63
2023-01-25T03:14:08.036Z,102120.91
2023-01-25T03:17:10.177Z,102108.94
2023-01-25T03:20:12.460Z,102120.00
2023-01-25T03:23:15.024Z,102110.81
2023-01-25T03:26:20.332Z,102106.34
2023-01-25T03:29:48.297Z,102106.84
2023-01-25T03:32:54.731Z,102103.06
2023-01-25T03:35:56.474Z,102106.63
2023-01-25T03:38:58.189Z,102101.16
2023-01-25T03:42:01.964Z,102104.00
2023-01-25T03:45:05.220Z,102102.06
2023-01-25T03:48:07.284Z,102107.97
2023-01-25T03:51:09.284Z,102101.38
2023-01-25T03:54:11.679Z,102109.81
2023-01-25T03:57:14.929Z,102106.75
2023-01-25T04:00:30.883Z,102103.00
2023-01-25T04:03:35.689Z,102098.72
2023-01-25T04:06:37.386Z,102091.16
2023-01-25T04:09:39.271Z,102098.72
2023-01-25T04:12:46.585Z,102104.34
2023-01-25T04:15:48.384Z,102104.81
2023-01-25T04:19:00.457Z,102101.34
2023-01-25T04:22:03.739Z,102098.75
2023-01-25T04:25:11.982Z,102095.72
2023-01-25T04:28:20.565Z,102102.69
2023-01-25T04:31:22.497Z,102098.22
2023-01-25T04:34:24.321Z,102096.06
2023-01-25T04:37:26.015Z,102089.19
2023-01-25T04:40:34.671Z,102092.53
2023-01-25T04:43:37.787Z,102085.28
2023-01-25T04:46:43.731Z,102094.38
2023-01-25T04:49:45.410Z,102090.38
2023-01-25T04:52:49.103Z,102089.06
2023-01-25T04:55:51.454Z,102084.63
2023-01-25T04:58:54.563Z,102088.84
2023-01-25T05:01:56.822Z,102081.56
2023-01-25T05:04:59.110Z,102077.09
2023-01-25T05:08:02.481Z,102082.25
2023-01-25T05:11:04.855Z,102077.09
2023-01-25T05:14:26.306Z,102079.19
2023-01-25T05:17:28.576Z,102070.50
2023-01-25T05:20:30.462Z,102063.16
2023-01-25T05:23:32.158Z,102054.44
2023-01-25T05:26:52.719Z,102050.91
2023-01-25T05:29:56.415Z,102042.47
2023-01-25T05:33:05.713Z,102040.84
2023-01-25T05:36:08.445Z,102035.56
2023-01-25T05:39:12.810Z,102029.47
2023-01-25T05:42:17.115Z,102022.63
2023-01-25T05:45:20.232Z,102027.78
2023-01-25T05:48:22.989Z,102026.84
2023-01-25T05:51:24.737Z,102032.75
2023-01-25T05:54:26.643Z,102031.41
2023-01-25T05:57:35.948Z,102023.88
2023-01-25T06:00:39.674Z,102021.28
2023-01-25T06:03:41.517Z,102026.22
2023-01-25T06:06:43.419Z,102026.66
2023-01-25T06:09:45.126Z,102025.97
2023-01-25T06:12:46.833Z,102023.31
2023-01-25T06:16:10.088Z,102028.06
2023-01-25T06:19:17.893Z,102033.22
2023-01-25T06:22:42.516Z,102037.03
2023-01-25T06:25:44.312Z,102040.31
2023-01-25T06:28:45.996Z,102036.56
2023-01-25T06:31:49.167Z,102037.00
2023-01-25T06:34:50.821Z,102037.69
2023-01-25T06:37:55.843Z,102034.47
2023-01-25T06:41:01.539Z,102033.75
2023-01-25T06:44:03.185Z,102045.03
2023-01-25T06:47:08.764Z,102035.13
2023-01-25T06:50:10.741Z,102030.44
2023-01-25T06:53:12.493Z,102021.72
2023-01-25T06:56:17.713Z,102025.00
2023-01-25T06:59:19.328Z,102016.78
2023-01-25T07:02:22.430Z,102027.16
2023-01-25T07:05:24.139Z,102022.19
2023-01-25T07:08:26.165Z,102017.91
2023-01-25T07:11:27.808Z,102015.31
2023-01-25T07:14:29.717Z,102026.19
2023-01-25T07:17:32.771Z,102020.28
2023-01-25T07:20:34.431Z,102022.66
2023-01-25T07:23:37.889Z,102019.38
2023-01-25T07:26:39.517Z,102023.31
2023-01-25T07:29:41.385Z,102022.63
2023-01-25T07:32:44.379Z,102017.91
2023-01-25T07:35:46.102Z,102020.06
2023-01-25T07:38:48.108Z,102026.44
2023-01-25T07:41:49.732Z,102023.41
2023-01-25T07:44:53.998Z,102020.75
2023-01-25T07:47:57.895Z,102030.44
2023-01-25T07:51:11.642Z,102025.72
2023-01-25T07:54:13.363Z,102024.31
2023-01-25T07:57:15.222Z,102022.41
2023-01-25T08:00:17.838Z,102018.72
2023-01-25T08:03:22.107Z,102023.88
2023-01-25T08:06:27.266Z,102024.56
2023-01-25T08:09:29.002Z,102026.94
2023-01-25T08:12:30.745Z,102028.84
2023-01-25T08:15:32.505Z,102023.88
2023-01-25T08:18:36.712Z,102021.03
2023-01-25T08:21:38.794Z,102023.22
2023-01-25T08:24:40.599Z,102014.41
2023-01-25T08:27:42.688Z,102021.53
2023-01-25T08:31:08.336Z,102016.63
2023-01-25T08:34:11.672Z,102010.94
2023-01-25T08:37:13.352Z,102010.97
2023-01-25T08:40:15.656Z,102002.94
2023-01-25T08:43:17.484Z,102004.19
2023-01-25T08:46:19.787Z,101998.94
2023-01-25T08:49:23.036Z,101997.50
2023-01-25T08:52:24.697Z,102000.38
2023-01-25T08:55:26.382Z,101999.69
2023-01-25T08:58:28.036Z,101995.69
2023-01-25T09:01:29.961Z,101999.22
2023-01-25T09:04:33.005Z,101986.41
2023-01-25T09:07:38.418Z,101995.41
2023-01-25T09:10:40.048Z,101988.16
2023-01-25T09:13:43.533Z,101989.59
2023-01-25T09:16:45.882Z,101988.28
2023-01-25T09:22:55.923Z,101990.88
2023-01-25T09:25:58.394Z,101986.38
2023-01-25T09:29:00.185Z,101991.06
2023-01-25T09:32:02.426Z,101996.47
2023-01-25T09:35:08.426Z,101996.94
2023-01-25T09:38:30.103Z,101993.97
2023-01-25T09:41:45.372Z,101985.50
2023-01-25T09:45:08.574Z,101983.78
2023-01-25T09:48:21.900Z,101992.81
2023-01-25T09:51:30.139Z,101989.75
2023-01-25T09:54:46.463Z,101991.94
2023-01-25T09:57:53.759Z,101980.41
2023-01-25T10:01:12.096Z,101975.91
2023-01-25T10:04:18.824Z,101979.66
2023-01-25T10:07:27.817Z,101976.50
2023-01-25T10:10:35.423Z,101974.00
2023-01-25T10:13:37.129Z,101974.06
2023-01-25T10:16:51.951Z,101970.97
2023-01-25T10:20:12.859Z,101969.28
2023-01-25T10:23:50.254Z,101976.63
2023-01-25T10:26:56.986Z,101966.28
2023-01-25T10:30:03.007Z,101964.41
2023-01-25T10:33:13.458Z,101952.34
2023-01-25T10:36:17.302Z,101945.59
2023-01-25T10:39:20.058Z,101943.19
2023-01-25T10:42:26.569Z,101938.03
2023-01-25T10:45:28.632Z,101928.38
2023-01-25T10:48:33.912Z,101928.44
2023-01-25T10:51:35.964Z,101917.56
2023-01-25T10:55:14.928Z,101912.41
2023-01-25T10:58:32.247Z,101904.63
2023-01-25T11:01:36.331Z,101906.09
2023-01-25T11:04:39.227Z,101896.22
2023-01-25T11:07:40.911Z,101886.34
2023-01-25T11:10:44.957Z,101884.00
2023-01-25T11:13:48.214Z,101880.72
2023-01-25T11:16:49.953Z,101874.78
2023-01-25T11:20:08.512Z,101864.44
2023-01-25T11:23:23.092Z,101861.38
2023-01-25T11:26:24.803Z,101859.47
2023-01-25T11:29:27.870Z,101851.03
2023-01-25T11:32:29.561Z,101844.22
2023-01-25T11:35:35.216Z,101842.09
2023-01-25T11:38:39.279Z,101840.19
2023-01-25T11:41:55.478Z,101830.53
2023-01-25T11:45:18.372Z,101822.78
2023-01-25T11:48:43.548Z,101823.72
2023-01-25T11:51:54.963Z,101818.09
2023-01-25T11:55:02.423Z,101818.28
2023-01-25T11:58:15.594Z,101803.72
2023-01-25T12:01:25.984Z,101803.97
2023-01-25T12:05:12.627Z,101793.59
2023-01-25T12:08:40.667Z,101782.06
2023-01-25T12:11:54.764Z,101784.88
2023-01-25T12:15:16.826Z,101776.38
2023-01-25T12:18:34.223Z,101773.84
2023-01-25T12:21:52.391Z,101761.13
2023-01-25T12:25:03.269Z,101753.09
2023-01-25T12:28:14.902Z,101738.72
2023-01-25T12:31:22.121Z,101727.44
2023-01-25T12:34:32.689Z,101718.00
2023-01-25T12:37:39.808Z,101711.19
2023-01-25T12:40:49.434Z,101712.56
2023-01-25T12:43:56.314Z,101702.47
2023-01-25T12:47:05.549Z,101704.38
2023-01-25T12:50:17.052Z,101702.03
2023-01-25T12:53:23.079Z,101689.78
2023-01-25T12:56:33.582Z,101685.06
2023-01-25T12:59:46.116Z,101678.25
2023-01-25T13:03:00.034Z,101672.34
2023-01-25T13:06:15.074Z,101678.97
2023-01-25T13:09:23.486Z,101676.81
2023-01-25T13:12:25.886Z,101674.69
2023-01-25T13:15:39.539Z,101680.81
2023-01-25T13:18:41.667Z,101673.78
2023-01-25T13:21:47.064Z,101670.22
2023-01-25T13:25:10.651Z,101666.72
2023-01-25T13:28:43.133Z,101660.53
2023-01-25T13:31:52.115Z,101665.72
2023-01-25T13:34:59.955Z,101654.91
2023-01-25T13:38:17.148Z,101647.56
2023-01-25T13:41:19.074Z,101642.41
2023-01-25T13:44:28.246Z,101633.69
2023-01-25T13:47:33.283Z,101621.50
2023-01-25T13:50:39.985Z,101619.66
2023-01-25T13:53:54.439Z,101608.78
2023-01-25T13:57:03.854Z,101602.66
2023-01-25T14:00:14.764Z,101607.81
2023-01-25T14:03:17.222Z,101602.16
2023-01-25T14:06:21.963Z,101598.63
2023-01-25T14:09:25.345Z,101595.34
2023-01-25T14:12:34.616Z,101589.88
2023-01-25T14:15:36.476Z,101591.38
2023-01-25T14:18:38.708Z,101591.56
2023-01-25T14:21:40.620Z,101583.31
2023-01-25T14:24:43.736Z,101587.59
2023-01-25T14:27:48.861Z,101574.94
2023-01-25T14:30:52.896Z,101572.56
2023-01-25T14:33:58.301Z,101568.81
2023-01-25T14:37:07.321Z,101563.09
2023-01-25T14:40:13.238Z,101563.09
2023-01-25T14:43:15.937Z,101563.81
2023-01-25T14:46:28.377Z,101557.53
2023-01-25T14:49:30.245Z,101553.50
2023-01-25T14:52:32.050Z,101557.94
2023-01-25T14:55:36.460Z,101554.88
2023-01-25T14:58:39.708Z,101551.63
2023-01-25T15:01:41.670Z,101537.94
2023-01-25T15:04:52.809Z,101534.41
2023-01-25T15:07:55.927Z,101526.38
2023-01-25T15:11:18.814Z,101531.16
2023-01-25T15:14:22.222Z,101521.97
2023-01-25T15:17:38.395Z,101510.91
2023-01-25T15:20:41.784Z,101505.25
2023-01-25T15:23:45.601Z,101503.16
2023-01-25T15:26:51.833Z,101508.09
2023-01-25T15:29:53.766Z,101501.03
2023-01-25T15:32:56.181Z,101501.31
2023-01-25T15:35:58.832Z,101488.38
2023-01-25T15:39:00.763Z,101490.44
2023-01-25T15:42:04.207Z,101487.16
2023-01-25T15:45:09.441Z,101491.13
2023-01-25T15:48:14.563Z,101482.91
2023-01-25T15:51:16.823Z,101481.72
2023-01-25T15:54:18.600Z,101485.47
2023-01-25T15:57:28.647Z,101476.09
2023-01-25T16:00:30.467Z,101478.22
2023-01-25T16:03:32.578Z,101477.75
2023-01-25T16:06:40.646Z,101479.84
2023-01-25T16:09:42.802Z,101479.44
2023-01-25T16:12:45.923Z,101488.59
2023-01-25T16:15:51.270Z,101485.53
2023-01-25T16:18:53.168Z,101474.94
2023-01-25T16:21:54.886Z,101478.91
2023-01-25T16:24:56.609Z,101483.16
2023-01-25T16:27:59.708Z,101481.47
2023-01-25T16:31:02.926Z,101478.94
2023-01-25T16:34:04.728Z,101475.13
2023-01-25T16:37:06.477Z,101480.78
2023-01-25T16:40:21.199Z,101474.69
2023-01-25T16:43:27.009Z,101471.88
2023-01-25T16:46:33.544Z,101467.66
2023-01-25T16:49:35.712Z,101467.63
2023-01-25T16:52:37.489Z,101469.94
2023-01-25T16:55:39.302Z,101465.53
2023-01-25T16:58:42.429Z,101470.72
2023-01-25T17:01:44.623Z,101461.75
2023-01-25T17:04:47.584Z,101457.31
2023-01-25T17:07:50.238Z,101448.81
2023-01-25T17:10:54.056Z,101446.25
2023-01-25T17:13:58.639Z,101452.38
2023-01-25T17:17:00.434Z,101454.72
2023-01-25T17:20:02.397Z,101448.78
2023-01-25T17:23:04.167Z,101443.88
2023-01-25T17:26:07.465Z,101445.53
2023-01-25T17:29:10.892Z,101434.72
2023-01-25T17:32:12.758Z,101435.16
2023-01-25T17:35:14.586Z,101429.78
2023-01-25T17:38:16.340Z,101422.91
2023-01-25T17:41:18.132Z,101422.00
2023-01-25T17:44:22.794Z,101425.28
2023-01-25T17:47:24.581Z,101422.22
2023-01-25T17:50:26.197Z,101415.22
2023-01-25T17:53:28.283Z,101411.97
2023-01-25T17:56:30.719Z,101404.19
2023-01-25T17:59:33.843Z,101406.28
2023-01-25T18:02:35.664Z,101407.47
2023-01-25T18:05:37.756Z,101399.97
2023-01-25T18:08:40.825Z,101399.94
2023-01-25T18:11:42.668Z,101396.88
2023-01-25T18:14:45.740Z,101395.97
2023-01-25T18:17:47.792Z,101386.78
2023-01-25T18:20:49.697Z,101379.25
2023-01-25T18:23:54.489Z,101383.72
2023-01-25T18:27:01.399Z,101376.44
2023-01-25T18:30:23.719Z,101375.00
2023-01-25T18:33:25.407Z,101366.84
2023-01-25T18:36:27.352Z,101367.03
2023-01-25T18:39:29.552Z,101363.28
2023-01-25T18:42:31.202Z,101363.31
2023-01-25T18:45:34.201Z,101355.03
2023-01-25T18:48:36.252Z,101354.28
2023-01-25T18:51:56.979Z,101353.88
2023-01-25T18:54:59.772Z,101348.25
2023-01-25T18:58:21.678Z,101349.91
2023-01-25T19:01:25.370Z,101354.38
2023-01-25T19:04:27.643Z,101344.94
2023-01-25T19:07:29.332Z,101353.63
2023-01-25T19:10:33.386Z,101349.09
2023-01-25T19:13:36.630Z,101350.09
2023-01-25T19:16:39.591Z,101339.78
2023-01-25T19:19:42.346Z,101340.69
2023-01-25T19:22:44.028Z,101335.09
2023-01-25T19:25:53.130Z,101333.63
2023-01-25T19:28:55.594Z,101338.28
2023-01-25T19:31:58.597Z,101334.34
2023-01-25T19:35:00.221Z,101327.84
2023-01-25T19:38:01.895Z,101331.13
2023-01-25T19:41:04.734Z,101322.41
2023-01-25T19:44:07.456Z,101325.94
2023-01-25T19:47:10.523Z,101310.69
2023-01-25T19:50:12.464Z,101311.34
2023-01-25T19:53:14.151Z,101312.06
2023-01-25T19:56:17.596Z,101310.16
2023-01-25T19:59:20.741Z,101305.47
2023-01-25T20:02:23.996Z,101305.44
2023-01-25T20:05:25.675Z,101310.16
2023-01-25T20:08:28.825Z,101303.56
2023-01-25T20:11:32.800Z,101292.81
2023-01-25T20:14:35.840Z,101291.88
2023-01-25T20:17:41.393Z,101288.56
2023-01-25T20:20:43.009Z,101281.94
2023-01-25T20:23:46.469Z,101279.31
2023-01-25T20:26:48.994Z,101271.53
2023-01-25T20:29:53.733Z,101268.28
2023-01-25T20:32:56.758Z,101267.38
2023-01-25T20:35:59.892Z,101262.25
2023-01-25T20:39:02.232Z,101267.72
2023-01-25T20:42:04.067Z,101259.66
2023-01-25T20:45:07.169Z,101250.97
2023-01-25T20:48:10.287Z,101246.19
2023-01-25T20:51:14.599Z,101246.63
2023-01-25T20:54:18.061Z,101244.41
2023-01-25T20:57:22.151Z,101245.81
2023-01-25T21:00:25.500Z,101249.16
2023-01-25T21:03:30.105Z,101243.22
2023-01-25T21:06:34.178Z,101249.56
2023-01-25T21:09:38.572Z,101246.34
2023-01-25T21:12:40.224Z,101250.09
2023-01-25T21:15:41.998Z,101249.91
2023-01-25T21:18:47.000Z,101240.97
2023-01-25T21:21:48.576Z,101241.44
2023-01-25T21:24:50.920Z,101237.22
2023-01-25T21:27:53.355Z,101239.81
2023-01-25T21:30:55.172Z,101242.16
2023-01-25T21:33:59.017Z,101243.78
2023-01-25T21:37:02.599Z,101239.81
2023-01-25T21:40:05.118Z,101244.47
2023-01-25T21:43:06.912Z,101227.56
2023-01-25T21:46:13.522Z,101227.38
2023-01-25T21:49:35.606Z,101222.44
2023-01-25T21:52:37.362Z,101225.03
2023-01-25T21:55:39.095Z,101224.81
2023-01-25T21:58:40.703Z,101220.75
2023-01-25T22:01:44.771Z,101211.63
2023-01-25T22:04:47.867Z,101212.53
2023-01-25T22:07:49.733Z,101216.28
2023-01-25T22:10:51.357Z,101206.66
2023-01-25T22:13:54.040Z,101199.88
2023-01-25T22:16:58.399Z,101192.84
2023-01-25T22:20:01.347Z,101199.19
2023-01-25T22:23:03.015Z,101196.13
2023-01-25T22:26:06.584Z,101190.72
2023-01-25T22:29:09.049Z,101187.19
2023-01-25T22:32:10.845Z,101184.41
2023-01-25T22:35:14.012Z,101178.53
2023-01-25T22:38:16.023Z,101173.84
2023-01-25T22:41:19.953Z,101175.66
2023-01-25T22:44:21.730Z,101169.31
2023-01-25T22:47:26.166Z,101166.97
2023-01-25T22:50:29.201Z,101154.97
2023-01-25T22:53:31.413Z,101154.22
2023-01-25T22:56:34.361Z,101148.09
2023-01-25T22:59:36.008Z,101140.38
2023-01-25T23:02:38.124Z,101136.44
2023-01-25T23:05:41.161Z,101131.22
2023-01-25T23:08:43.893Z,101123.72
2023-01-25T23:12:05.608Z,101115.22
2023-01-25T23:15:15.646Z,101111.75
2023-01-25T23:18:38.045Z,101115.75
2023-01-25T23:21:41.661Z,101099.97
2023-01-25T23:24:43.603Z,101088.03
2023-01-25T23:27:46.557Z,101094.41
2023-01-25T23:30:48.377Z,101094.69
2023-01-25T23:33:52.619Z,101087.38
2023-01-25T23:36:55.764Z,101083.78
2023-01-25T23:39:57.440Z,101070.66
2023-01-25T23:42:59.158Z,101069.66
2023-01-25T23:46:01.431Z,101071.75
2023-01-25T23:49:03.085Z,101068.25
2023-01-25T23:52:06.314Z,101066.91
2023-01-25T23:55:09.005Z,101069.75
2023-01-25T23:58:10.704Z,101064.38
